sensor_id;sensor_type;location;lat;lon;timestamp;temperature;humidity
4406;DHT22;2216;53.806;11.598;2023-08-07T00:00:42;15.30;65.30
4406;DHT22;2216;53.806;11.598;2023-08-07T00:03:08;15.50;65.50
4406;DHT22;2216;53.806;11.598;2023-08-07T00:05:34;15.50;65.40
4406;DHT22;2216;53.806;11.598;2023-08-07T00:08:00;15.50;65.40
4406;DHT22;2216;53.806;11.598;2023-08-07T00:10:26;15.50;65.50
4406;DHT22;2216;53.806;11.598;2023-08-07T00:12:51;15.60;65.60
4406;DHT22;2216;53.806;11.598;2023-08-07T00:15:17;15.60;65.50
4406;DHT22;2216;53.806;11.598;2023-08-07T00:17:43;15.60;65.60
4406;DHT22;2216;53.806;11.598;2023-08-07T00:20:09;15.60;65.70
4406;DHT22;2216;53.806;11.598;2023-08-07T00:22:35;15.60;65.80
4406;DHT22;2216;53.806;11.598;2023-08-07T00:25:00;15.60;65.90
4406;DHT22;2216;53.806;11.598;2023-08-07T00:27:26;15.60;65.80
4406;DHT22;2216;53.806;11.598;2023-08-07T00:29:52;15.60;65.80
4406;DHT22;2216;53.806;11.598;2023-08-07T00:32:17;15.60;65.80
4406;DHT22;2216;53.806;11.598;2023-08-07T00:34:43;15.60;65.70
4406;DHT22;2216;53.806;11.598;2023-08-07T00:37:09;15.60;65.90
4406;DHT22;2216;53.806;11.598;2023-08-07T00:39:34;15.70;66.00
4406;DHT22;2216;53.806;11.598;2023-08-07T00:42:00;15.60;66.00
4406;DHT22;2216;53.806;11.598;2023-08-07T00:44:26;15.70;66.20
4406;DHT22;2216;53.806;11.598;2023-08-07T00:46:51;15.70;66.40
4406;DHT22;2216;53.806;11.598;2023-08-07T00:49:19;15.70;66.20
4406;DHT22;2216;53.806;11.598;2023-08-07T00:51:45;15.70;66.00
4406;DHT22;2216;53.806;11.598;2023-08-07T00:54:13;15.70;66.30
4406;DHT22;2216;53.806;11.598;2023-08-07T00:56:40;15.70;66.20
4406;DHT22;2216;53.806;11.598;2023-08-07T00:59:06;15.70;66.10
4406;DHT22;2216;53.806;11.598;2023-08-07T01:01:32;15.70;66.30
4406;DHT22;2216;53.806;11.598;2023-08-07T01:03:58;15.70;66.10
4406;DHT22;2216;53.806;11.598;2023-08-07T01:06:24;15.70;66.20
4406;DHT22;2216;53.806;11.598;2023-08-07T01:08:50;15.70;66.30
4406;DHT22;2216;53.806;11.598;2023-08-07T01:11:22;15.70;66.30
4406;DHT22;2216;53.806;11.598;2023-08-07T01:14:02;15.60;66.30
4406;DHT22;2216;53.806;11.598;2023-08-07T01:19:32;15.70;66.50
4406;DHT22;2216;53.806;11.598;2023-08-07T01:24:36;15.70;66.40
4406;DHT22;2216;53.806;11.598;2023-08-07T01:32:58;15.60;66.40
4406;DHT22;2216;53.806;11.598;2023-08-07T01:35:46;15.60;66.40
4406;DHT22;2216;53.806;11.598;2023-08-07T01:38:15;15.60;66.40
4406;DHT22;2216;53.806;11.598;2023-08-07T01:40:42;15.60;66.30
4406;DHT22;2216;53.806;11.598;2023-08-07T01:43:08;15.60;66.40
4406;DHT22;2216;53.806;11.598;2023-08-07T01:45:34;15.60;66.40
4406;DHT22;2216;53.806;11.598;2023-08-07T01:48:00;15.60;66.60
4406;DHT22;2216;53.806;11.598;2023-08-07T01:50:27;15.60;66.40
4406;DHT22;2216;53.806;11.598;2023-08-07T01:52:53;15.50;66.30
4406;DHT22;2216;53.806;11.598;2023-08-07T01:55:20;15.50;66.20
4406;DHT22;2216;53.806;11.598;2023-08-07T01:57:46;15.50;66.30
4406;DHT22;2216;53.806;11.598;2023-08-07T02:00:12;15.50;66.30
4406;DHT22;2216;53.806;11.598;2023-08-07T02:02:38;15.50;66.20
4406;DHT22;2216;53.806;11.598;2023-08-07T02:05:04;15.50;66.30
4406;DHT22;2216;53.806;11.598;2023-08-07T02:07:30;15.50;67.00
4406;DHT22;2216;53.806;11.598;2023-08-07T02:09:57;15.40;66.30
4406;DHT22;2216;53.806;11.598;2023-08-07T02:12:23;15.40;66.30
4406;DHT22;2216;53.806;11.598;2023-08-07T02:14:50;15.40;67.10
4406;DHT22;2216;53.806;11.598;2023-08-07T02:17:15;15.40;66.30
4406;DHT22;2216;53.806;11.598;2023-08-07T02:19:41;15.40;66.20
4406;DHT22;2216;53.806;11.598;2023-08-07T02:22:06;15.20;66.20
4406;DHT22;2216;53.806;11.598;2023-08-07T02:24:32;15.30;66.70
4406;DHT22;2216;53.806;11.598;2023-08-07T02:26:58;15.30;66.50
4406;DHT22;2216;53.806;11.598;2023-08-07T02:29:23;15.20;66.40
4406;DHT22;2216;53.806;11.598;2023-08-07T02:31:49;15.20;66.40
4406;DHT22;2216;53.806;11.598;2023-08-07T02:34:15;15.20;66.40
4406;DHT22;2216;53.806;11.598;2023-08-07T02:36:40;15.30;67.20
4406;DHT22;2216;53.806;11.598;2023-08-07T02:39:06;15.20;66.40
4406;DHT22;2216;53.806;11.598;2023-08-07T02:41:32;15.20;66.50
4406;DHT22;2216;53.806;11.598;2023-08-07T02:43:58;15.40;66.50
4406;DHT22;2216;53.806;11.598;2023-08-07T02:46:23;15.10;66.40
4406;DHT22;2216;53.806;11.598;2023-08-07T02:48:49;15.10;66.60
4406;DHT22;2216;53.806;11.598;2023-08-07T02:51:15;15.10;66.50
4406;DHT22;2216;53.806;11.598;2023-08-07T02:53:41;15.10;66.50
4406;DHT22;2216;53.806;11.598;2023-08-07T02:56:06;15.10;66.50
4406;DHT22;2216;53.806;11.598;2023-08-07T02:58:32;15.10;66.50
4406;DHT22;2216;53.806;11.598;2023-08-07T03:01:06;15.00;66.50
4406;DHT22;2216;53.806;11.598;2023-08-07T03:03:32;15.00;66.60
4406;DHT22;2216;53.806;11.598;2023-08-07T03:05:57;15.00;66.80
4406;DHT22;2216;53.806;11.598;2023-08-07T03:08:23;15.00;66.70
4406;DHT22;2216;53.806;11.598;2023-08-07T03:10:57;15.00;66.70
4406;DHT22;2216;53.806;11.598;2023-08-07T03:13:26;14.90;66.60
4406;DHT22;2216;53.806;11.598;2023-08-07T03:16:03;14.90;66.60
4406;DHT22;2216;53.806;11.598;2023-08-07T03:18:30;14.90;66.60
4406;DHT22;2216;53.806;11.598;2023-08-07T03:20:56;14.90;66.70
4406;DHT22;2216;53.806;11.598;2023-08-07T03:23:23;14.90;66.80
4406;DHT22;2216;53.806;11.598;2023-08-07T03:25:49;14.90;66.70
4406;DHT22;2216;53.806;11.598;2023-08-07T03:28:15;14.80;66.70
4406;DHT22;2216;53.806;11.598;2023-08-07T03:30:41;14.80;66.60
4406;DHT22;2216;53.806;11.598;2023-08-07T03:33:07;14.80;66.70
4406;DHT22;2216;53.806;11.598;2023-08-07T03:35:33;14.80;66.80
4406;DHT22;2216;53.806;11.598;2023-08-07T03:37:59;14.80;66.80
4406;DHT22;2216;53.806;11.598;2023-08-07T03:40:24;14.60;66.70
4406;DHT22;2216;53.806;11.598;2023-08-07T03:42:50;14.80;66.90
4406;DHT22;2216;53.806;11.598;2023-08-07T03:45:16;14.80;66.70
4406;DHT22;2216;53.806;11.598;2023-08-07T03:47:41;14.80;66.80
4406;DHT22;2216;53.806;11.598;2023-08-07T03:50:07;14.80;67.70
4406;DHT22;2216;53.806;11.598;2023-08-07T03:52:33;14.70;66.70
4406;DHT22;2216;53.806;11.598;2023-08-07T03:54:58;14.80;67.10
4406;DHT22;2216;53.806;11.598;2023-08-07T03:57:25;14.70;66.80
4406;DHT22;2216;53.806;11.598;2023-08-07T03:59:50;14.70;66.80
4406;DHT22;2216;53.806;11.598;2023-08-07T04:02:16;14.70;66.80
4406;DHT22;2216;53.806;11.598;2023-08-07T04:04:41;14.70;66.90
4406;DHT22;2216;53.806;11.598;2023-08-07T04:07:07;14.80;67.00
4406;DHT22;2216;53.806;11.598;2023-08-07T04:09:33;14.70;66.90
4406;DHT22;2216;53.806;11.598;2023-08-07T04:11:59;14.70;67.00
4406;DHT22;2216;53.806;11.598;2023-08-07T04:14:24;14.80;67.10
4406;DHT22;2216;53.806;11.598;2023-08-07T04:16:51;14.70;67.00
4406;DHT22;2216;53.806;11.598;2023-08-07T04:19:16;14.70;66.90
4406;DHT22;2216;53.806;11.598;2023-08-07T04:21:42;14.70;67.00
4406;DHT22;2216;53.806;11.598;2023-08-07T04:24:08;14.70;67.10
4406;DHT22;2216;53.806;11.598;2023-08-07T04:26:37;14.80;67.30
4406;DHT22;2216;53.806;11.598;2023-08-07T04:29:03;14.70;67.10
4406;DHT22;2216;53.806;11.598;2023-08-07T04:31:29;14.70;67.30
4406;DHT22;2216;53.806;11.598;2023-08-07T04:33:58;14.70;67.30
4406;DHT22;2216;53.806;11.598;2023-08-07T04:36:24;14.80;67.20
4406;DHT22;2216;53.806;11.598;2023-08-07T04:38:50;14.80;67.40
4406;DHT22;2216;53.806;11.598;2023-08-07T04:41:16;14.80;67.40
4406;DHT22;2216;53.806;11.598;2023-08-07T04:43:42;14.80;67.20
4406;DHT22;2216;53.806;11.598;2023-08-07T04:46:09;14.80;67.30
4406;DHT22;2216;53.806;11.598;2023-08-07T04:48:35;14.80;67.20
4406;DHT22;2216;53.806;11.598;2023-08-07T04:51:02;14.80;67.30
4406;DHT22;2216;53.806;11.598;2023-08-07T04:53:27;14.90;67.40
4406;DHT22;2216;53.806;11.598;2023-08-07T04:55:53;14.90;67.30
4406;DHT22;2216;53.806;11.598;2023-08-07T04:58:19;14.90;67.30
4406;DHT22;2216;53.806;11.598;2023-08-07T05:00:45;14.90;67.30
4406;DHT22;2216;53.806;11.598;2023-08-07T05:03:10;14.90;67.30
4406;DHT22;2216;53.806;11.598;2023-08-07T05:05:36;14.90;67.40
4406;DHT22;2216;53.806;11.598;2023-08-07T05:08:02;15.00;67.30
4406;DHT22;2216;53.806;11.598;2023-08-07T05:10:27;15.00;67.40
4406;DHT22;2216;53.806;11.598;2023-08-07T05:12:53;15.00;67.40
4406;DHT22;2216;53.806;11.598;2023-08-07T05:15:25;15.00;67.40
4406;DHT22;2216;53.806;11.598;2023-08-07T05:17:51;15.00;67.60
4406;DHT22;2216;53.806;11.598;2023-08-07T05:20:17;15.10;67.60
4406;DHT22;2216;53.806;11.598;2023-08-07T05:22:44;15.10;67.40
4406;DHT22;2216;53.806;11.598;2023-08-07T05:25:09;15.10;67.50
4406;DHT22;2216;53.806;11.598;2023-08-07T05:27:36;15.10;67.50
4406;DHT22;2216;53.806;11.598;2023-08-07T05:30:03;15.20;67.50
4406;DHT22;2216;53.806;11.598;2023-08-07T05:32:29;15.20;67.50
4406;DHT22;2216;53.806;11.598;2023-08-07T05:34:55;15.20;67.40
4406;DHT22;2216;53.806;11.598;2023-08-07T05:37:21;15.30;67.50
4406;DHT22;2216;53.806;11.598;2023-08-07T05:39:46;15.30;67.60
4406;DHT22;2216;53.806;11.598;2023-08-07T05:42:12;15.30;67.60
4406;DHT22;2216;53.806;11.598;2023-08-07T05:44:38;15.40;67.70
4406;DHT22;2216;53.806;11.598;2023-08-07T05:47:04;15.40;67.90
4406;DHT22;2216;53.806;11.598;2023-08-07T05:49:30;15.40;67.90
4406;DHT22;2216;53.806;11.598;2023-08-07T05:51:56;15.40;67.70
4406;DHT22;2216;53.806;11.598;2023-08-07T05:54:22;15.50;67.80
4406;DHT22;2216;53.806;11.598;2023-08-07T05:56:48;15.50;68.00
4406;DHT22;2216;53.806;11.598;2023-08-07T05:59:13;15.50;67.60
4406;DHT22;2216;53.806;11.598;2023-08-07T06:01:40;15.60;67.70
4406;DHT22;2216;53.806;11.598;2023-08-07T06:04:06;15.60;67.80
4406;DHT22;2216;53.806;11.598;2023-08-07T06:06:32;15.60;67.90
4406;DHT22;2216;53.806;11.598;2023-08-07T06:09:00;15.60;67.80
4406;DHT22;2216;53.806;11.598;2023-08-07T06:11:27;15.70;67.80
4406;DHT22;2216;53.806;11.598;2023-08-07T06:13:52;15.70;67.70
4406;DHT22;2216;53.806;11.598;2023-08-07T06:16:18;15.70;67.80
4406;DHT22;2216;53.806;11.598;2023-08-07T06:18:44;15.80;68.00
4406;DHT22;2216;53.806;11.598;2023-08-07T06:21:09;15.80;68.00
4406;DHT22;2216;53.806;11.598;2023-08-07T06:23:36;15.80;67.80
4406;DHT22;2216;53.806;11.598;2023-08-07T06:26:02;15.90;68.00
4406;DHT22;2216;53.806;11.598;2023-08-07T06:28:33;15.90;68.00
4406;DHT22;2216;53.806;11.598;2023-08-07T06:31:09;15.90;67.90
4406;DHT22;2216;53.806;11.598;2023-08-07T06:33:36;16.00;68.00
4406;DHT22;2216;53.806;11.598;2023-08-07T06:36:02;16.00;68.10
4406;DHT22;2216;53.806;11.598;2023-08-07T06:38:29;16.10;68.00
4406;DHT22;2216;53.806;11.598;2023-08-07T06:40:55;16.10;67.80
4406;DHT22;2216;53.806;11.598;2023-08-07T06:43:21;16.20;68.00
4406;DHT22;2216;53.806;11.598;2023-08-07T06:45:50;16.20;68.00
4406;DHT22;2216;53.806;11.598;2023-08-07T06:48:17;16.20;67.90
4406;DHT22;2216;53.806;11.598;2023-08-07T06:50:42;16.30;68.20
4406;DHT22;2216;53.806;11.598;2023-08-07T06:53:08;16.30;68.30
4406;DHT22;2216;53.806;11.598;2023-08-07T06:55:34;16.30;68.10
4406;DHT22;2216;53.806;11.598;2023-08-07T06:57:59;16.40;68.00
4406;DHT22;2216;53.806;11.598;2023-08-07T07:00:25;16.50;68.10
4406;DHT22;2216;53.806;11.598;2023-08-07T07:02:51;16.50;68.00
4406;DHT22;2216;53.806;11.598;2023-08-07T07:05:17;16.50;68.00
4406;DHT22;2216;53.806;11.598;2023-08-07T07:07:42;16.50;67.90
4406;DHT22;2216;53.806;11.598;2023-08-07T07:10:08;16.60;68.30
4406;DHT22;2216;53.806;11.598;2023-08-07T07:12:34;16.60;68.00
4406;DHT22;2216;53.806;11.598;2023-08-07T07:15:00;16.60;68.00
4406;DHT22;2216;53.806;11.598;2023-08-07T07:17:25;16.70;68.00
4406;DHT22;2216;53.806;11.598;2023-08-07T07:19:51;16.70;67.80
4406;DHT22;2216;53.806;11.598;2023-08-07T07:22:17;16.80;67.80
4406;DHT22;2216;53.806;11.598;2023-08-07T07:24:42;16.80;68.00
4406;DHT22;2216;53.806;11.598;2023-08-07T07:27:08;16.80;67.80
4406;DHT22;2216;53.806;11.598;2023-08-07T07:29:34;16.90;67.80
4406;DHT22;2216;53.806;11.598;2023-08-07T07:31:59;16.90;67.70
4406;DHT22;2216;53.806;11.598;2023-08-07T07:34:25;16.90;67.70
4406;DHT22;2216;53.806;11.598;2023-08-07T07:36:51;17.00;67.70
4406;DHT22;2216;53.806;11.598;2023-08-07T07:39:19;17.00;67.60
4406;DHT22;2216;53.806;11.598;2023-08-07T07:41:44;17.10;67.80
4406;DHT22;2216;53.806;11.598;2023-08-07T07:44:10;17.10;67.70
4406;DHT22;2216;53.806;11.598;2023-08-07T07:46:36;17.20;67.80
4406;DHT22;2216;53.806;11.598;2023-08-07T07:49:01;17.20;67.60
4406;DHT22;2216;53.806;11.598;2023-08-07T07:51:29;17.30;67.80
4406;DHT22;2216;53.806;11.598;2023-08-07T07:53:54;17.30;67.70
4406;DHT22;2216;53.806;11.598;2023-08-07T07:56:20;17.30;67.60
4406;DHT22;2216;53.806;11.598;2023-08-07T07:58:45;17.40;67.60
4406;DHT22;2216;53.806;11.598;2023-08-07T08:01:11;17.40;67.50
4406;DHT22;2216;53.806;11.598;2023-08-07T08:03:37;17.40;67.40
4406;DHT22;2216;53.806;11.598;2023-08-07T08:06:02;17.50;67.40
4406;DHT22;2216;53.806;11.598;2023-08-07T08:08:28;17.50;67.30
4406;DHT22;2216;53.806;11.598;2023-08-07T08:10:54;17.50;67.20
4406;DHT22;2216;53.806;11.598;2023-08-07T08:13:20;17.60;67.30
4406;DHT22;2216;53.806;11.598;2023-08-07T08:15:45;17.60;67.20
4406;DHT22;2216;53.806;11.598;2023-08-07T08:18:11;17.70;67.20
4406;DHT22;2216;53.806;11.598;2023-08-07T08:20:38;17.70;67.20
4406;DHT22;2216;53.806;11.598;2023-08-07T08:23:04;17.70;67.20
4406;DHT22;2216;53.806;11.598;2023-08-07T08:25:31;17.70;67.00
4406;DHT22;2216;53.806;11.598;2023-08-07T08:27:58;17.80;67.00
4406;DHT22;2216;53.806;11.598;2023-08-07T08:30:24;17.80;67.10
4406;DHT22;2216;53.806;11.598;2023-08-07T08:32:50;17.90;67.10
4406;DHT22;2216;53.806;11.598;2023-08-07T08:35:16;17.90;67.00
4406;DHT22;2216;53.806;11.598;2023-08-07T08:37:41;17.90;67.10
4406;DHT22;2216;53.806;11.598;2023-08-07T08:40:08;18.00;67.20
4406;DHT22;2216;53.806;11.598;2023-08-07T08:42:39;18.30;67.40
4406;DHT22;2216;53.806;11.598;2023-08-07T08:45:09;18.20;67.30
4406;DHT22;2216;53.806;11.598;2023-08-07T08:47:39;18.30;67.00
4406;DHT22;2216;53.806;11.598;2023-08-07T08:50:11;18.30;67.00
4406;DHT22;2216;53.806;11.598;2023-08-07T08:52:41;18.30;66.60
4406;DHT22;2216;53.806;11.598;2023-08-07T08:55:09;18.50;66.80
4406;DHT22;2216;53.806;11.598;2023-08-07T08:57:37;18.50;67.00
4406;DHT22;2216;53.806;11.598;2023-08-07T09:00:08;18.60;66.70
4406;DHT22;2216;53.806;11.598;2023-08-07T09:02:47;18.70;66.90
4406;DHT22;2216;53.806;11.598;2023-08-07T09:05:18;18.80;66.90
4406;DHT22;2216;53.806;11.598;2023-08-07T09:07:46;18.90;66.50
4406;DHT22;2216;53.806;11.598;2023-08-07T09:10:15;19.00;66.60
4406;DHT22;2216;53.806;11.598;2023-08-07T09:12:46;19.10;66.70
4406;DHT22;2216;53.806;11.598;2023-08-07T09:15:30;19.20;66.60
4406;DHT22;2216;53.806;11.598;2023-08-07T09:17:58;19.30;66.50
4406;DHT22;2216;53.806;11.598;2023-08-07T09:20:25;19.30;66.60
4406;DHT22;2216;53.806;11.598;2023-08-07T09:22:51;19.40;66.40
4406;DHT22;2216;53.806;11.598;2023-08-07T09:25:30;19.50;66.50
4406;DHT22;2216;53.806;11.598;2023-08-07T09:27:57;19.50;65.90
4406;DHT22;2216;53.806;11.598;2023-08-07T09:30:27;19.60;66.00
4406;DHT22;2216;53.806;11.598;2023-08-07T09:32:54;19.60;66.00
4406;DHT22;2216;53.806;11.598;2023-08-07T09:35:22;19.70;65.90
4406;DHT22;2216;53.806;11.598;2023-08-07T09:37:49;19.80;65.80
4406;DHT22;2216;53.806;11.598;2023-08-07T09:40:15;19.80;66.00
4406;DHT22;2216;53.806;11.598;2023-08-07T09:42:41;19.90;65.80
4406;DHT22;2216;53.806;11.598;2023-08-07T09:45:21;19.90;65.60
4406;DHT22;2216;53.806;11.598;2023-08-07T09:48:04;20.00;65.40
4406;DHT22;2216;53.806;11.598;2023-08-07T09:50:34;20.00;65.00
4406;DHT22;2216;53.806;11.598;2023-08-07T09:53:00;20.00;65.50
4406;DHT22;2216;53.806;11.598;2023-08-07T09:55:26;20.10;65.60
4406;DHT22;2216;53.806;11.598;2023-08-07T09:57:52;20.20;66.10
4406;DHT22;2216;53.806;11.598;2023-08-07T10:00:19;20.30;65.90
4406;DHT22;2216;53.806;11.598;2023-08-07T10:02:46;20.40;65.70
4406;DHT22;2216;53.806;11.598;2023-08-07T10:05:13;20.50;65.80
4406;DHT22;2216;53.806;11.598;2023-08-07T10:07:39;20.60;65.80
4406;DHT22;2216;53.806;11.598;2023-08-07T10:10:06;20.70;65.40
4406;DHT22;2216;53.806;11.598;2023-08-07T10:12:33;20.80;65.80
4406;DHT22;2216;53.806;11.598;2023-08-07T10:14:59;21.00;65.60
4406;DHT22;2216;53.806;11.598;2023-08-07T10:17:25;21.10;65.30
4406;DHT22;2216;53.806;11.598;2023-08-07T10:19:52;21.30;65.10
4406;DHT22;2216;53.806;11.598;2023-08-07T10:22:24;21.40;65.20
4406;DHT22;2216;53.806;11.598;2023-08-07T10:24:53;21.50;65.00
4406;DHT22;2216;53.806;11.598;2023-08-07T10:27:21;21.70;64.30
4406;DHT22;2216;53.806;11.598;2023-08-07T10:29:50;21.80;64.90
4406;DHT22;2216;53.806;11.598;2023-08-07T10:32:19;22.00;63.90
4406;DHT22;2216;53.806;11.598;2023-08-07T10:34:52;22.20;64.30
4406;DHT22;2216;53.806;11.598;2023-08-07T10:37:43;22.30;63.80
4406;DHT22;2216;53.806;11.598;2023-08-07T10:40:11;22.40;63.50
4406;DHT22;2216;53.806;11.598;2023-08-07T10:43:11;22.40;62.20
4406;DHT22;2216;53.806;11.598;2023-08-07T10:45:38;22.40;61.60
4406;DHT22;2216;53.806;11.598;2023-08-07T10:48:10;22.50;62.30
4406;DHT22;2216;53.806;11.598;2023-08-07T10:56:02;22.60;62.60
4406;DHT22;2216;53.806;11.598;2023-08-07T10:58:35;22.70;62.50
4406;DHT22;2216;53.806;11.598;2023-08-07T11:03:59;22.70;62.10
4406;DHT22;2216;53.806;11.598;2023-08-07T11:06:28;22.70;61.80
4406;DHT22;2216;53.806;11.598;2023-08-07T11:08:58;22.70;61.30
4406;DHT22;2216;53.806;11.598;2023-08-07T11:11:24;22.70;61.20
4406;DHT22;2216;53.806;11.598;2023-08-07T11:13:52;22.50;61.20
4406;DHT22;2216;53.806;11.598;2023-08-07T11:16:18;22.40;60.80
4406;DHT22;2216;53.806;11.598;2023-08-07T11:18:47;22.20;60.30
4406;DHT22;2216;53.806;11.598;2023-08-07T11:21:14;22.00;60.40
4406;DHT22;2216;53.806;11.598;2023-08-07T11:23:40;21.80;60.00
4406;DHT22;2216;53.806;11.598;2023-08-07T11:26:07;21.60;60.20
4406;DHT22;2216;53.806;11.598;2023-08-07T11:28:35;21.30;60.60
4406;DHT22;2216;53.806;11.598;2023-08-07T11:31:01;21.10;60.60
4406;DHT22;2216;53.806;11.598;2023-08-07T11:33:28;20.90;60.20
4406;DHT22;2216;53.806;11.598;2023-08-07T11:35:54;20.80;61.10
4406;DHT22;2216;53.806;11.598;2023-08-07T11:41:01;20.60;61.00
4406;DHT22;2216;53.806;11.598;2023-08-07T11:43:29;20.40;61.10
4406;DHT22;2216;53.806;11.598;2023-08-07T11:45:56;20.30;61.20
4406;DHT22;2216;53.806;11.598;2023-08-07T11:48:27;20.20;61.50
4406;DHT22;2216;53.806;11.598;2023-08-07T11:50:54;20.10;61.40
4406;DHT22;2216;53.806;11.598;2023-08-07T11:53:21;20.10;61.70
4406;DHT22;2216;53.806;11.598;2023-08-07T11:56:07;20.10;62.20
4406;DHT22;2216;53.806;11.598;2023-08-07T11:58:44;20.00;61.80
4406;DHT22;2216;53.806;11.598;2023-08-07T12:01:14;20.00;61.80
4406;DHT22;2216;53.806;11.598;2023-08-07T12:03:50;20.00;61.50
4406;DHT22;2216;53.806;11.598;2023-08-07T12:06:26;20.00;61.50
4406;DHT22;2216;53.806;11.598;2023-08-07T12:08:55;19.90;61.70
4406;DHT22;2216;53.806;11.598;2023-08-07T12:11:22;19.90;61.90
4406;DHT22;2216;53.806;11.598;2023-08-07T12:13:48;19.90;62.50
4406;DHT22;2216;53.806;11.598;2023-08-07T12:16:15;20.00;62.80
4406;DHT22;2216;53.806;11.598;2023-08-07T12:18:49;20.10;62.50
4406;DHT22;2216;53.806;11.598;2023-08-07T12:21:20;20.20;63.00
4406;DHT22;2216;53.806;11.598;2023-08-07T12:23:49;20.40;63.00
4406;DHT22;2216;53.806;11.598;2023-08-07T12:26:16;20.50;62.60
4406;DHT22;2216;53.806;11.598;2023-08-07T12:28:42;20.60;62.50
4406;DHT22;2216;53.806;11.598;2023-08-07T12:31:08;20.70;62.10
4406;DHT22;2216;53.806;11.598;2023-08-07T12:33:34;20.70;61.40
4406;DHT22;2216;53.806;11.598;2023-08-07T12:36:00;20.80;61.00
4406;DHT22;2216;53.806;11.598;2023-08-07T12:38:27;20.50;61.20
4406;DHT22;2216;53.806;11.598;2023-08-07T12:40:53;20.40;61.30
4406;DHT22;2216;53.806;11.598;2023-08-07T12:43:19;20.30;61.40
4406;DHT22;2216;53.806;11.598;2023-08-07T12:45:45;20.20;61.50
4406;DHT22;2216;53.806;11.598;2023-08-07T12:48:11;20.20;61.40
4406;DHT22;2216;53.806;11.598;2023-08-07T12:50:37;20.10;61.30
4406;DHT22;2216;53.806;11.598;2023-08-07T12:53:03;20.00;61.20
4406;DHT22;2216;53.806;11.598;2023-08-07T12:55:29;19.80;61.00
4406;DHT22;2216;53.806;11.598;2023-08-07T12:57:55;19.70;61.10
4406;DHT22;2216;53.806;11.598;2023-08-07T13:00:22;19.60;61.40
4406;DHT22;2216;53.806;11.598;2023-08-07T13:02:49;19.50;61.60
4406;DHT22;2216;53.806;11.598;2023-08-07T13:05:16;19.50;62.20
4406;DHT22;2216;53.806;11.598;2023-08-07T13:07:43;19.60;62.80
4406;DHT22;2216;53.806;11.598;2023-08-07T13:10:12;19.60;63.00
4406;DHT22;2216;53.806;11.598;2023-08-07T13:12:40;19.70;63.20
4406;DHT22;2216;53.806;11.598;2023-08-07T13:15:08;19.90;63.30
4406;DHT22;2216;53.806;11.598;2023-08-07T13:17:35;19.90;63.00
4406;DHT22;2216;53.806;11.598;2023-08-07T13:20:02;20.00;62.60
4406;DHT22;2216;53.806;11.598;2023-08-07T13:22:35;20.10;62.70
4406;DHT22;2216;53.806;11.598;2023-08-07T13:25:05;20.10;62.60
4406;DHT22;2216;53.806;11.598;2023-08-07T13:27:32;20.10;62.50
4406;DHT22;2216;53.806;11.598;2023-08-07T13:29:58;20.10;61.70
4406;DHT22;2216;53.806;11.598;2023-08-07T13:32:24;20.10;61.50
4406;DHT22;2216;53.806;11.598;2023-08-07T13:34:50;20.10;61.40
4406;DHT22;2216;53.806;11.598;2023-08-07T13:37:16;20.10;61.30
4406;DHT22;2216;53.806;11.598;2023-08-07T13:39:42;20.10;61.10
4406;DHT22;2216;53.806;11.598;2023-08-07T13:42:08;20.20;61.50
4406;DHT22;2216;53.806;11.598;2023-08-07T13:44:34;20.20;61.10
4406;DHT22;2216;53.806;11.598;2023-08-07T13:46:59;20.30;61.60
4406;DHT22;2216;53.806;11.598;2023-08-07T13:49:25;20.30;60.00
4406;DHT22;2216;53.806;11.598;2023-08-07T13:51:50;20.30;60.50
4406;DHT22;2216;53.806;11.598;2023-08-07T13:54:16;20.30;59.90
4406;DHT22;2216;53.806;11.598;2023-08-07T13:56:42;20.30;60.40
4406;DHT22;2216;53.806;11.598;2023-08-07T13:59:08;20.30;60.20
4406;DHT22;2216;53.806;11.598;2023-08-07T14:01:34;20.40;60.90
4406;DHT22;2216;53.806;11.598;2023-08-07T14:04:01;20.50;60.70
4406;DHT22;2216;53.806;11.598;2023-08-07T14:06:27;20.60;60.80
4406;DHT22;2216;53.806;11.598;2023-08-07T14:08:53;20.70;60.60
4406;DHT22;2216;53.806;11.598;2023-08-07T14:11:19;20.80;60.60
4406;DHT22;2216;53.806;11.598;2023-08-07T14:13:45;20.80;60.40
4406;DHT22;2216;53.806;11.598;2023-08-07T14:16:12;20.80;60.00
4406;DHT22;2216;53.806;11.598;2023-08-07T14:18:38;20.80;59.40
4406;DHT22;2216;53.806;11.598;2023-08-07T14:21:03;20.80;59.90
4406;DHT22;2216;53.806;11.598;2023-08-07T14:23:30;20.90;59.70
4406;DHT22;2216;53.806;11.598;2023-08-07T14:25:56;20.90;59.80
4406;DHT22;2216;53.806;11.598;2023-08-07T14:28:22;20.90;59.10
4406;DHT22;2216;53.806;11.598;2023-08-07T14:30:48;20.80;59.40
4406;DHT22;2216;53.806;11.598;2023-08-07T14:33:13;20.70;58.90
4406;DHT22;2216;53.806;11.598;2023-08-07T14:35:39;20.70;58.80
4406;DHT22;2216;53.806;11.598;2023-08-07T14:38:05;20.60;58.40
4406;DHT22;2216;53.806;11.598;2023-08-07T14:40:31;20.50;59.10
4406;DHT22;2216;53.806;11.598;2023-08-07T14:42:56;20.40;59.00
4406;DHT22;2216;53.806;11.598;2023-08-07T14:45:22;20.30;59.10
4406;DHT22;2216;53.806;11.598;2023-08-07T14:47:49;20.20;58.60
4406;DHT22;2216;53.806;11.598;2023-08-07T14:50:15;20.00;58.60
4406;DHT22;2216;53.806;11.598;2023-08-07T14:52:42;19.90;58.50
4406;DHT22;2216;53.806;11.598;2023-08-07T14:55:08;19.80;58.80
4406;DHT22;2216;53.806;11.598;2023-08-07T14:57:34;19.70;59.00
4406;DHT22;2216;53.806;11.598;2023-08-07T15:00:00;19.60;59.10
4406;DHT22;2216;53.806;11.598;2023-08-07T15:02:26;19.50;59.30
4406;DHT22;2216;53.806;11.598;2023-08-07T15:04:51;19.50;59.40
4406;DHT22;2216;53.806;11.598;2023-08-07T15:07:17;19.50;59.30
4406;DHT22;2216;53.806;11.598;2023-08-07T15:09:43;19.40;60.00
4406;DHT22;2216;53.806;11.598;2023-08-07T15:12:09;19.40;59.40
4406;DHT22;2216;53.806;11.598;2023-08-07T15:14:35;19.40;59.20
4406;DHT22;2216;53.806;11.598;2023-08-07T15:17:01;19.30;59.30
4406;DHT22;2216;53.806;11.598;2023-08-07T15:19:27;19.30;59.50
4406;DHT22;2216;53.806;11.598;2023-08-07T15:21:52;19.30;59.50
4406;DHT22;2216;53.806;11.598;2023-08-07T15:24:18;19.20;59.50
4406;DHT22;2216;53.806;11.598;2023-08-07T15:26:44;19.20;59.60
4406;DHT22;2216;53.806;11.598;2023-08-07T15:29:11;19.20;59.50
4406;DHT22;2216;53.806;11.598;2023-08-07T15:31:36;19.10;59.10
4406;DHT22;2216;53.806;11.598;2023-08-07T15:34:02;19.10;58.80
4406;DHT22;2216;53.806;11.598;2023-08-07T15:36:28;19.10;59.10
4406;DHT22;2216;53.806;11.598;2023-08-07T15:38:54;19.10;59.30
4406;DHT22;2216;53.806;11.598;2023-08-07T15:41:21;19.00;59.50
4406;DHT22;2216;53.806;11.598;2023-08-07T15:43:46;19.00;59.20
4406;DHT22;2216;53.806;11.598;2023-08-07T15:46:15;19.00;59.50
4406;DHT22;2216;53.806;11.598;2023-08-07T15:48:41;19.00;59.20
4406;DHT22;2216;53.806;11.598;2023-08-07T15:51:07;19.00;60.00
4406;DHT22;2216;53.806;11.598;2023-08-07T15:53:33;18.90;59.30
4406;DHT22;2216;53.806;11.598;2023-08-07T15:55:59;18.90;59.30
4406;DHT22;2216;53.806;11.598;2023-08-07T15:58:25;18.80;59.10
4406;DHT22;2216;53.806;11.598;2023-08-07T16:00:50;18.80;59.20
4406;DHT22;2216;53.806;11.598;2023-08-07T16:03:16;18.70;59.10
4406;DHT22;2216;53.806;11.598;2023-08-07T16:05:43;18.60;59.40